Time;durP1;ratioP1;P1;durP2;ratioP2;P2;SDS_P1;SDS_P2;PMS_P1;PMS_P2;Temp;Humidity;BMP_temperature;BMP_pressure;BME280_temperature;BME280_humidity;BME280_pressure;Samples;Min_cycle;Max_cycle;Signal;HPM_P1;HPM_P2
2023/08/14 00:01:54;;;;;;;11.05;2.40;;;;;;;16.60;100.00;101317.03;5021345;28;20123;-67
2023/08/14 00:04:19;;;;;;;7.28;2.05;;;;;;;16.55;100.00;101323.59;5019139;28;20037;-67
2023/08/14 00:06:45;;;;;;;4.10;1.95;;;;;;;16.53;100.00;101322.16;5018077;28;20045;-67
2023/08/14 00:09:10;;;;;;;11.52;2.60;;;;;;;16.52;100.00;101320.56;5023983;28;20068;-67
2023/08/14 00:11:36;;;;;;;6.45;2.45;;;;;;;16.50;100.00;101317.28;5013918;28;20029;-67
2023/08/14 00:14:01;;;;;;;10.63;2.40;;;;;;;16.41;100.00;101324.44;5012141;28;20033;-67
2023/08/14 00:16:27;;;;;;;8.45;2.95;;;;;;;16.32;100.00;101326.31;5010564;28;20127;-67
2023/08/14 00:18:53;;;;;;;5.75;2.10;;;;;;;16.27;100.00;101326.03;5013730;28;20033;-67
2023/08/14 00:21:19;;;;;;;5.60;2.03;;;;;;;16.25;100.00;101329.84;5017155;28;20075;-67
2023/08/14 00:23:45;;;;;;;9.35;2.67;;;;;;;16.19;100.00;101328.75;5015817;28;20195;-67
2023/08/14 00:26:13;;;;;;;3.88;2.08;;;;;;;16.12;100.00;101318.22;5017447;28;20675;-67
2023/08/14 00:28:39;;;;;;;6.63;2.38;;;;;;;16.06;100.00;101316.31;5032058;28;20123;-67
2023/08/14 00:31:06;;;;;;;8.23;2.28;;;;;;;16.05;100.00;101316.47;5014703;28;20052;-67
2023/08/14 00:33:31;;;;;;;7.28;2.60;;;;;;;16.06;100.00;101321.53;5019816;28;20380;-68
2023/08/14 00:35:57;;;;;;;6.55;2.28;;;;;;;16.08;100.00;101318.75;5018383;28;20454;-67
2023/08/14 00:38:22;;;;;;;4.85;1.98;;;;;;;16.09;100.00;101318.56;5016581;28;20049;-68
2023/08/14 00:40:48;;;;;;;9.18;2.15;;;;;;;16.12;100.00;101318.22;5013446;28;20126;-67
2023/08/14 00:43:13;;;;;;;6.03;2.38;;;;;;;16.08;100.00;101322.16;5016904;28;20030;-68
2023/08/14 00:45:39;;;;;;;3.65;1.92;;;;;;;16.01;100.00;101316.03;5018678;28;20021;-67
2023/08/14 00:48:05;;;;;;;8.15;2.15;;;;;;;15.97;100.00;101317.38;5024316;28;20038;-67
2023/08/14 00:50:31;;;;;;;5.22;2.10;;;;;;;15.98;100.00;101311.16;5021929;28;20034;-67
2023/08/14 00:53:00;;;;;;;5.07;2.30;;;;;;;15.96;100.00;101323.63;5020214;28;20379;-68
2023/08/14 00:55:26;;;;;;;10.20;1.92;;;;;;;15.96;100.00;101313.94;5018676;28;20034;-67
2023/08/14 00:57:53;;;;;;;5.47;1.85;;;;;;;15.91;100.00;101312.88;5025924;28;20417;-68
2023/08/14 01:00:18;;;;;;;4.78;1.90;;;;;;;15.83;100.00;101320.78;5018757;28;20923;-67
2023/08/14 01:02:46;;;;;;;5.85;2.35;;;;;;;15.75;100.00;101314.66;5018265;28;20056;-67
2023/08/14 01:05:11;;;;;;;6.13;2.35;;;;;;;15.69;100.00;101320.56;5025510;28;20029;-67
2023/08/14 01:07:37;;;;;;;7.90;2.10;;;;;;;15.64;100.00;101312.44;5021540;28;20033;-68
2023/08/14 01:10:04;;;;;;;7.10;2.50;;;;;;;15.61;100.00;101311.97;5022689;28;20024;-67
2023/08/14 01:12:42;;;;;;;5.53;2.45;;;;;;;15.55;100.00;101316.91;5018696;28;20056;-68
2023/08/14 01:15:32;;;;;;;4.65;2.17;;;;;;;15.50;100.00;101306.19;5016260;28;20410;-67
2023/08/14 01:18:01;;;;;;;4.32;1.85;;;;;;;15.49;100.00;101301.13;5018989;28;20041;-68
2023/08/14 01:20:32;;;;;;;5.72;2.20;;;;;;;15.45;100.00;101299.88;5018381;28;20712;-68
2023/08/14 01:23:20;;;;;;;5.38;2.40;;;;;;;15.43;100.00;101297.41;5022361;28;20037;-68
2023/08/14 01:25:47;;;;;;;9.80;2.65;;;;;;;15.40;100.00;101300.38;5031056;28;20046;-68
2023/08/14 01:28:14;;;;;;;12.55;2.97;;;;;;;15.37;100.00;101300.75;5020976;28;20029;-68
2023/08/14 01:30:40;;;;;;;7.53;2.60;;;;;;;15.34;100.00;101293.25;5018206;28;20068;-68
2023/08/14 01:33:06;;;;;;;4.75;2.70;;;;;;;15.32;100.00;101296.03;5019377;28;20033;-68
2023/08/14 01:36:04;;;;;;;7.80;2.40;;;;;;;15.29;100.00;101291.13;5016895;28;20037;-68
2023/08/14 01:38:52;;;;;;;4.65;2.38;;;;;;;15.29;100.00;101283.31;4976100;28;20041;-68
2023/08/14 01:41:51;;;;;;;4.68;2.13;;;;;;;15.26;100.00;101278.44;5004923;28;20046;-68
2023/08/14 01:44:20;;;;;;;4.00;2.33;;;;;;;15.23;100.00;101278.78;4985140;28;20096;-68
2023/08/14 01:46:47;;;;;;;5.03;2.38;;;;;;;15.18;100.00;101275.88;5003920;28;20583;-67
2023/08/14 01:49:15;;;;;;;6.18;2.00;;;;;;;15.10;100.00;101274.13;5006318;28;20400;-68
2023/08/14 01:51:41;;;;;;;6.97;3.08;;;;;;;15.07;100.00;101274.50;5001191;28;20034;-68
2023/08/14 01:54:07;;;;;;;7.50;2.28;;;;;;;15.05;100.00;101265.19;5004465;28;20125;-67
2023/08/14 01:56:32;;;;;;;5.93;2.20;;;;;;;15.02;100.00;101260.34;5012080;28;20053;-68
2023/08/14 01:58:58;;;;;;;5.22;2.58;;;;;;;15.02;100.00;101262.97;5026647;28;20608;-68
2023/08/14 02:01:23;;;;;;;5.00;2.20;;;;;;;15.05;100.00;101254.75;5026046;28;20041;-68
2023/08/14 02:03:49;;;;;;;9.27;2.70;;;;;;;15.08;100.00;101252.59;5021114;28;20096;-68
2023/08/14 02:06:14;;;;;;;5.88;2.22;;;;;;;15.09;100.00;101246.41;5023030;28;20041;-68
2023/08/14 02:08:39;;;;;;;4.88;1.92;;;;;;;15.06;100.00;101246.75;5025194;28;20029;-68
2023/08/14 02:11:09;;;;;;;6.05;2.38;;;;;;;15.07;100.00;101247.56;5022995;28;20037;-68
2023/08/14 02:13:35;;;;;;;4.70;2.15;;;;;;;15.07;100.00;101242.34;5017547;28;20038;-68
2023/08/14 02:16:04;;;;;;;5.40;2.35;;;;;;;15.06;100.00;101243.34;5020584;28;20601;-68
2023/08/14 02:18:30;;;;;;;4.95;2.35;;;;;;;15.01;100.00;101243.03;5023697;28;20029;-68
2023/08/14 02:20:55;;;;;;;3.95;2.15;;;;;;;14.95;100.00;101241.94;5025563;28;20033;-68
2023/08/14 02:23:21;;;;;;;5.95;2.38;;;;;;;14.88;100.00;101244.44;5022238;28;20034;-68
2023/08/14 02:25:47;;;;;;;5.65;2.40;;;;;;;14.83;100.00;101238.91;5021070;28;20041;-68
2023/08/14 02:28:12;;;;;;;4.55;1.70;;;;;;;14.79;100.00;101241.06;5024314;28;20037;-68
2023/08/14 02:30:42;;;;;;;6.72;2.20;;;;;;;14.79;100.00;101242.88;5022029;28;20664;-68
2023/08/14 02:33:09;;;;;;;5.30;2.10;;;;;;;14.84;100.00;101240.53;5028423;28;20029;-68
2023/08/14 02:35:35;;;;;;;6.28;2.60;;;;;;;14.86;100.00;101237.75;5024431;28;20048;-68
2023/08/14 02:38:02;;;;;;;4.18;1.98;;;;;;;14.83;100.00;101238.91;5023679;28;20033;-68
2023/08/14 02:40:28;;;;;;;3.67;1.77;;;;;;;14.79;100.00;101240.25;5021922;28;20103;-68
2023/08/14 02:42:59;;;;;;;4.93;2.55;;;;;;;14.76;100.00;101236.19;5024643;28;20500;-68
2023/08/14 02:45:24;;;;;;;6.28;2.08;;;;;;;14.74;100.00;101232.13;5023225;28;20740;-68
2023/08/14 02:47:49;;;;;;;7.00;2.40;;;;;;;14.71;100.00;101235.06;5021787;28;20033;-68
2023/08/14 02:50:15;;;;;;;4.07;2.40;;;;;;;14.67;100.00;101232.00;5025379;28;20088;-68
2023/08/14 02:52:40;;;;;;;5.32;2.20;;;;;;;14.63;100.00;101228.09;5021668;28;20029;-68
2023/08/14 02:55:06;;;;;;;4.18;2.13;;;;;;;14.59;100.00;101229.44;5024240;28;20038;-68
2023/08/14 02:57:32;;;;;;;6.75;2.75;;;;;;;14.56;100.00;101216.69;5018959;28;20516;-68
2023/08/14 02:59:57;;;;;;;5.13;2.13;;;;;;;14.54;100.00;101223.88;5025131;28;20033;-68
2023/08/14 03:02:22;;;;;;;4.15;2.03;;;;;;;14.53;100.00;101224.88;5027580;28;20475;-68
2023/08/14 03:04:49;;;;;;;4.68;2.25;;;;;;;14.49;100.00;101229.63;5028854;28;20045;-68
2023/08/14 03:07:15;;;;;;;4.10;2.75;;;;;;;14.46;100.00;101218.72;5018688;28;20136;-68
2023/08/14 03:09:40;;;;;;;3.65;2.30;;;;;;;14.45;100.00;101227.50;5020560;28;20043;-68
2023/08/14 03:12:06;;;;;;;4.60;2.67;;;;;;;14.43;100.00;101232.09;5023849;28;20037;-68
2023/08/14 03:14:31;;;;;;;10.30;2.10;;;;;;;14.45;100.00;101237.94;5027084;28;20080;-68
2023/08/14 03:16:57;;;;;;;3.28;2.35;;;;;;;14.45;100.00;101224.91;5020276;28;20025;-68
2023/08/14 03:19:22;;;;;;;4.93;2.55;;;;;;;14.41;100.00;101234.91;5021606;28;20044;-68
2023/08/14 03:21:51;;;;;;;8.68;2.50;;;;;;;14.37;100.00;101230.97;5023283;28;20511;-68
2023/08/14 03:24:17;;;;;;;6.35;2.45;;;;;;;14.35;100.00;101232.94;5017607;28;20059;-68
2023/08/14 03:26:42;;;;;;;4.18;2.03;;;;;;;14.31;100.00;101234.28;5020762;28;20841;-68
2023/08/14 03:29:08;;;;;;;5.85;1.85;;;;;;;14.26;100.00;101228.75;5023928;28;20049;-68
2023/08/14 03:31:34;;;;;;;3.03;1.77;;;;;;;14.20;100.00;101225.00;5021315;28;20034;-69
2023/08/14 03:34:01;;;;;;;3.63;1.85;;;;;;;14.17;100.00;101225.38;5021533;28;20034;-69
2023/08/14 03:36:27;;;;;;;6.05;1.77;;;;;;;14.14;100.00;101225.69;5020593;28;20041;-69
2023/08/14 03:38:52;;;;;;;4.53;1.92;;;;;;;14.11;100.00;101221.66;5024273;28;20026;-68
2023/08/14 03:41:19;;;;;;;3.90;2.08;;;;;;;14.09;100.00;101228.84;5017816;28;20033;-68
2023/08/14 03:43:45;;;;;;;4.78;1.73;;;;;;;14.07;100.00;101224.75;5021459;28;20033;-69
2023/08/14 03:46:10;;;;;;;7.40;1.83;;;;;;;14.06;100.00;101221.34;5026333;28;20416;-69
2023/08/14 03:48:36;;;;;;;3.88;1.95;;;;;;;14.04;100.00;101220.69;5023783;28;20120;-69
2023/08/14 03:51:02;;;;;;;5.07;1.98;;;;;;;14.02;100.00;101214.84;5018687;28;20037;-68
2023/08/14 03:53:28;;;;;;;6.95;2.10;;;;;;;14.03;100.00;101213.84;5019702;28;20107;-69
2023/08/14 03:55:53;;;;;;;6.15;2.28;;;;;;;14.02;100.00;101210.41;5022256;28;20090;-68
2023/08/14 03:58:19;;;;;;;5.85;2.45;;;;;;;14.05;100.00;101213.66;5021944;28;20034;-69
2023/08/14 04:00:46;;;;;;;6.55;2.28;;;;;;;14.07;100.00;101220.38;5019625;28;20522;-69
2023/08/14 04:03:14;;;;;;;7.15;2.95;;;;;;;14.07;100.00;101220.38;5024288;28;20155;-69
2023/08/14 04:05:40;;;;;;;4.53;2.47;;;;;;;14.07;100.00;101220.38;5019381;28;20524;-69
2023/08/14 04:08:07;;;;;;;6.50;2.65;;;;;;;14.06;100.00;101223.94;5022157;28;20483;-69
2023/08/14 04:10:33;;;;;;;9.18;3.03;;;;;;;14.06;100.00;101220.53;5021049;28;20026;-69
2023/08/14 04:12:59;;;;;;;3.70;1.98;;;;;;;14.08;100.00;101224.59;5024322;28;20022;-69
2023/08/14 04:15:24;;;;;;;3.15;2.13;;;;;;;14.10;100.00;101224.41;5018698;28;20040;-69
2023/08/14 04:17:50;;;;;;;4.03;2.17;;;;;;;14.11;100.00;101231.25;5019304;28;20605;-69
2023/08/14 04:20:15;;;;;;;5.13;2.35;;;;;;;14.14;100.00;101228.31;5022770;28;20025;-69
2023/08/14 04:22:41;;;;;;;5.35;2.60;;;;;;;14.12;100.00;101218.03;5021597;28;20046;-69
2023/08/14 04:25:07;;;;;;;4.85;2.35;;;;;;;14.10;100.00;101214.00;5018926;28;20040;-69
2023/08/14 04:27:34;;;;;;;3.97;2.70;;;;;;;14.04;100.00;101220.69;5018902;28;20532;-69
2023/08/14 04:30:01;;;;;;;4.70;2.60;;;;;;;13.98;100.00;101224.78;5021971;28;20555;-69
2023/08/14 04:32:27;;;;;;;7.68;2.25;;;;;;;13.97;100.00;101220.53;5020871;28;20029;-69
2023/08/14 04:34:52;;;;;;;5.65;2.80;;;;;;;13.99;100.00;101225.59;5023804;28;20041;-69
2023/08/14 04:37:18;;;;;;;10.65;2.67;;;;;;;14.01;100.00;101221.00;5022116;28;20033;-69
2023/08/14 04:39:43;;;;;;;4.43;2.55;;;;;;;14.03;100.00;101224.25;5020721;28;20041;-69
2023/08/14 04:42:09;;;;;;;5.13;2.55;;;;;;;14.05;100.00;101205.84;5018229;28;20044;-69
2023/08/14 04:44:34;;;;;;;7.70;2.60;;;;;;;14.06;100.00;101207.50;5021814;28;20033;-69
2023/08/14 04:47:00;;;;;;;7.90;2.58;;;;;;;14.02;100.00;101210.41;5019727;28;20029;-69
2023/08/14 04:49:28;;;;;;;7.05;2.80;;;;;;;13.98;100.00;101205.72;5019858;28;20557;-69
2023/08/14 04:51:53;;;;;;;7.32;3.20;;;;;;;13.96;100.00;101198.06;5020915;28;20057;-69
2023/08/14 04:54:19;;;;;;;6.55;2.95;;;;;;;13.95;100.00;101195.63;5017119;28;20052;-69
2023/08/14 04:56:45;;;;;;;5.63;3.47;;;;;;;13.97;100.00;101196.28;5021987;28;20046;-69
2023/08/14 04:59:10;;;;;;;9.60;3.38;;;;;;;14.01;100.00;101198.38;5021252;28;20515;-69
2023/08/14 05:01:36;;;;;;;7.20;3.35;;;;;;;14.06;100.00;101199.66;5008215;28;20053;-69
2023/08/14 05:04:01;;;;;;;10.27;3.10;;;;;;;14.08;100.00;101197.69;5005606;28;20581;-69
2023/08/14 05:06:27;;;;;;;15.38;3.10;;;;;;;14.07;100.00;101193.44;5004205;28;21035;-69
2023/08/14 05:08:53;;;;;;;7.32;2.67;;;;;;;14.08;100.00;101192.50;5003862;28;20034;-69
2023/08/14 05:11:18;;;;;;;11.05;2.92;;;;;;;14.10;100.00;101191.31;5005913;28;20037;-69
2023/08/14 05:13:44;;;;;;;7.82;2.95;;;;;;;14.13;100.00;101198.00;5003615;28;20436;-69
2023/08/14 05:16:11;;;;;;;13.02;3.70;;;;;;;14.14;100.00;101186.59;5001265;28;20142;-69
2023/08/14 05:18:37;;;;;;;12.55;3.83;;;;;;;14.13;100.00;101198.00;5006329;28;20479;-69
2023/08/14 05:21:03;;;;;;;5.72;2.53;;;;;;;14.18;100.00;101187.88;5004768;28;20036;-69
2023/08/14 05:23:28;;;;;;;8.55;2.70;;;;;;;14.24;100.00;101194.19;5007738;28;20037;-69
2023/08/14 05:25:54;;;;;;;8.13;3.00;;;;;;;14.29;100.00;101199.72;5002215;28;20081;-69
2023/08/14 05:28:19;;;;;;;7.70;3.17;;;;;;;14.36;100.00;101206.69;5005003;28;20037;-69
2023/08/14 05:30:45;;;;;;;8.43;2.72;;;;;;;14.44;100.00;101208.44;5006456;28;20041;-69
2023/08/14 05:33:11;;;;;;;8.38;3.30;;;;;;;14.52;100.00;101211.03;5024593;28;20523;-69
2023/08/14 05:35:36;;;;;;;10.52;3.65;;;;;;;14.63;100.00;101201.19;5021702;28;20116;-69
2023/08/14 05:38:02;;;;;;;10.32;3.67;;;;;;;14.69;100.00;101192.66;5027843;28;20065;-69
2023/08/14 05:40:28;;;;;;;7.25;3.03;;;;;;;14.76;100.00;101191.00;5024465;28;20041;-69
2023/08/14 05:43:04;;;;;;;12.05;3.13;;;;;;;14.84;100.00;101185.72;5024745;28;20038;-69
2023/08/14 05:45:34;;;;;;;6.18;3.40;;;;;;;14.93;100.00;101197.72;5026618;28;20713;-69
2023/08/14 05:48:00;;;;;;;9.38;4.13;;;;;;;15.09;100.00;101201.22;5024544;28;20088;-68
2023/08/14 05:50:27;;;;;;;16.83;4.53;;;;;;;15.17;100.00;101201.94;5025128;28;20124;-68
2023/08/14 05:52:55;;;;;;;12.38;4.80;;;;;;;15.29;100.00;101197.09;5023696;28;20037;-68
2023/08/14 05:55:21;;;;;;;12.73;4.13;;;;;;;15.43;100.00;101198.13;5023220;28;20026;-68
2023/08/14 05:57:46;;;;;;;11.93;4.40;;;;;;;15.56;100.00;101198.31;5026540;28;20676;-68
2023/08/14 06:00:14;;;;;;;12.32;4.75;;;;;;;15.61;100.00;101197.75;5026009;28;20048;-67
2023/08/14 06:02:39;;;;;;;14.25;6.10;;;;;;;15.77;100.00;101188.97;5020624;28;20492;-67
2023/08/14 06:05:05;;;;;;;14.10;5.72;;;;;;;15.68;100.00;101203.09;5019468;28;20038;-67
2023/08/14 06:07:30;;;;;;;11.20;3.92;;;;;;;15.63;100.00;101206.25;5022606;28;20037;-68
2023/08/14 06:09:56;;;;;;;15.55;4.85;;;;;;;15.63;100.00;101208.03;5022695;28;20041;-67
2023/08/14 06:12:21;;;;;;;11.60;4.65;;;;;;;15.64;100.00;101196.63;5024755;28;20488;-68
2023/08/14 06:14:47;;;;;;;16.27;4.63;;;;;;;15.67;100.00;101191.00;5024807;28;20511;-67
2023/08/14 06:17:12;;;;;;;11.23;4.53;;;;;;;15.72;100.00;101194.72;5020859;28;20209;-67
2023/08/14 06:19:38;;;;;;;7.85;4.07;;;;;;;15.80;100.00;101185.19;5021765;28;20047;-67
2023/08/14 06:22:05;;;;;;;14.95;4.22;;;;;;;15.92;100.00;101188.97;5024415;28;20048;-67
2023/08/14 06:24:30;;;;;;;11.65;4.35;;;;;;;16.04;100.00;101186.72;5022233;28;20052;-67
2023/08/14 06:26:55;;;;;;;15.10;4.47;;;;;;;16.08;100.00;101195.81;5022413;28;20042;-67
2023/08/14 06:29:21;;;;;;;10.40;4.00;;;;;;;16.05;100.00;101211.84;5016067;28;20123;-67
2023/08/14 06:31:47;;;;;;;11.48;3.97;;;;;;;16.13;100.00;101217.00;5022310;28;20037;-67
2023/08/14 06:34:12;;;;;;;10.48;3.10;;;;;;;16.19;100.00;101218.06;5021400;28;20063;-67
2023/08/14 06:36:37;;;;;;;9.75;4.60;;;;;;;16.26;100.00;101227.63;5021800;28;20068;-67
2023/08/14 06:39:03;;;;;;;10.70;4.85;;;;;;;16.38;100.00;101227.97;5024165;28;20033;-67
2023/08/14 06:41:29;;;;;;;8.07;3.72;;;;;;;16.60;100.00;101230.63;5019055;28;20038;-67
2023/08/14 06:43:54;;;;;;;13.55;3.70;;;;;;;16.61;100.00;101233.03;5023807;28;20219;-67
2023/08/14 06:46:19;;;;;;;8.60;2.92;;;;;;;16.67;100.00;101221.84;5020509;28;20045;-67
2023/08/14 06:48:45;;;;;;;10.35;3.28;;;;;;;16.73;100.00;101223.72;5022707;28;20045;-67
2023/08/14 06:51:10;;;;;;;7.97;2.95;;;;;;;16.73;100.00;101215.06;5020417;28;20030;-67
2023/08/14 06:53:36;;;;;;;12.73;3.17;;;;;;;16.74;100.00;101208.81;5023034;28;20045;-67
2023/08/14 06:56:01;;;;;;;6.55;2.90;;;;;;;16.74;100.00;101198.34;5024231;28;20049;-67
2023/08/14 06:58:27;;;;;;;9.48;3.03;;;;;;;16.75;100.00;101202.59;5024457;28;20037;-67
2023/08/14 07:00:53;;;;;;;12.45;3.65;;;;;;;16.85;100.00;101207.53;5021344;28;20033;-67
2023/08/14 07:03:18;;;;;;;8.88;4.13;;;;;;;16.83;100.00;101201.69;5021286;28;20036;-67
2023/08/14 07:05:44;;;;;;;8.55;2.80;;;;;;;16.78;100.00;101201.38;5021227;28;20506;-67
2023/08/14 07:08:09;;;;;;;10.55;3.45;;;;;;;16.78;100.00;101209.25;5019301;28;20076;-67
2023/08/14 07:10:35;;;;;;;9.40;3.55;;;;;;;16.77;100.00;101208.44;5015608;28;20037;-67
2023/08/14 07:13:00;;;;;;;16.15;3.70;;;;;;;16.91;100.00;101202.38;5025735;28;20021;-67
2023/08/14 07:15:26;;;;;;;11.57;3.65;;;;;;;17.06;100.00;101191.00;5019397;28;20799;-67
2023/08/14 07:17:52;;;;;;;12.82;4.03;;;;;;;17.07;100.00;101190.81;5026538;28;20037;-67
2023/08/14 07:20:17;;;;;;;12.57;4.20;;;;;;;17.18;100.00;101184.25;5019773;28;20037;-67
2023/08/14 07:22:43;;;;;;;10.25;4.00;;;;;;;17.29;100.00;101180.28;5016182;28;20077;-67
2023/08/14 07:25:08;;;;;;;9.90;3.17;;;;;;;17.37;100.00;101181.97;5019731;28;20112;-67
2023/08/14 07:27:34;;;;;;;13.82;3.95;;;;;;;17.42;100.00;101174.31;5019768;28;20042;-67
2023/08/14 07:29:59;;;;;;;11.88;3.95;;;;;;;17.42;100.00;101169.91;5024876;28;20156;-68
2023/08/14 07:32:25;;;;;;;9.77;4.13;;;;;;;17.44;100.00;101165.28;5021526;28;20034;-67
2023/08/14 07:34:51;;;;;;;12.27;3.83;;;;;;;17.58;100.00;101162.72;5021485;28;20108;-67
2023/08/14 07:37:16;;;;;;;10.10;3.75;;;;;;;17.76;100.00;101156.97;5016811;28;20049;-67
2023/08/14 07:39:42;;;;;;;10.82;3.75;;;;;;;17.93;99.24;101165.34;5020819;28;20048;-67
2023/08/14 07:42:07;;;;;;;13.23;4.32;;;;;;;18.08;98.86;101171.25;5022379;28;20033;-67
2023/08/14 07:44:33;;;;;;;11.43;4.07;;;;;;;18.25;98.37;101177.78;5022540;28;20120;-67
2023/08/14 07:46:58;;;;;;;14.38;4.07;;;;;;;18.82;93.39;101190.63;5019689;28;20511;-67
2023/08/14 07:49:23;;;;;;;10.75;3.17;;;;;;;19.30;90.37;101192.25;5021224;28;20405;-67
2023/08/14 07:51:49;;;;;;;14.85;3.17;;;;;;;19.34;89.50;101188.19;5020854;28;20088;-67
2023/08/14 07:54:14;;;;;;;18.40;4.22;;;;;;;19.51;88.96;101189.34;5020825;28;20048;-67
2023/08/14 07:56:40;;;;;;;14.23;3.55;;;;;;;20.22;84.47;101182.47;5020640;28;20046;-67
2023/08/14 07:59:06;;;;;;;15.07;3.28;;;;;;;20.76;82.88;101183.78;5019849;28;20040;-67
2023/08/14 08:01:31;;;;;;;8.65;2.83;;;;;;;21.42;78.53;101170.19;5019034;28;20041;-67
2023/08/14 08:03:57;;;;;;;10.02;3.38;;;;;;;21.94;75.75;101160.09;5022515;28;20045;-68
2023/08/14 08:06:23;;;;;;;12.27;3.33;;;;;;;22.23;72.84;101161.13;5018286;28;20041;-68
2023/08/14 08:08:48;;;;;;;8.52;3.15;;;;;;;22.50;71.37;101180.06;5027084;28;20029;-68
2023/08/14 08:11:13;;;;;;;10.70;3.70;;;;;;;22.95;70.78;101189.34;5017983;28;20068;-68
2023/08/14 08:13:39;;;;;;;13.23;2.70;;;;;;;23.24;69.48;101189.47;5019888;28;20033;-68
2023/08/14 08:16:04;;;;;;;7.15;2.70;;;;;;;23.61;68.92;101190.00;5022773;28;20049;-68
2023/08/14 08:18:30;;;;;;;12.80;3.60;;;;;;;23.54;65.87;101191.97;5022430;28;20026;-68
2023/08/14 08:20:55;;;;;;;10.45;3.80;;;;;;;23.51;66.40;101195.09;5019239;28;20041;-68
2023/08/14 08:23:21;;;;;;;12.98;3.28;;;;;;;23.88;67.41;101189.50;5019396;28;20057;-68
2023/08/14 08:25:46;;;;;;;14.45;2.85;;;;;;;24.17;65.69;101192.19;5016660;28;20498;-68
2023/08/14 08:28:12;;;;;;;12.07;3.13;;;;;;;24.08;64.13;101191.75;5018110;28;20041;-68
2023/08/14 08:30:37;;;;;;;7.35;2.75;;;;;;;24.26;61.36;101196.84;5019129;28;20108;-68
2023/08/14 08:33:03;;;;;;;15.82;3.55;;;;;;;24.58;62.13;101199.03;5021881;28;20030;-68
2023/08/14 08:35:29;;;;;;;8.20;2.65;;;;;;;24.95;63.39;101198.53;5018144;28;20030;-68
2023/08/14 08:37:54;;;;;;;11.23;2.90;;;;;;;25.30;59.36;101199.31;5022189;28;20045;-68
2023/08/14 08:40:21;;;;;;;11.27;2.90;;;;;;;25.53;60.27;101196.44;5026104;28;20648;-68
2023/08/14 08:42:47;;;;;;;10.20;2.83;;;;;;;25.80;57.33;101187.72;5024901;28;20701;-68
2023/08/14 08:45:16;;;;;;;11.50;3.33;;;;;;;25.87;55.59;101179.56;5020516;28;20025;-68
2023/08/14 08:47:48;;;;;;;12.02;2.83;;;;;;;25.95;55.63;101182.59;5018456;28;20099;-69
2023/08/14 08:50:14;;;;;;;9.13;2.83;;;;;;;26.17;56.04;101181.78;5020940;28;20125;-69
2023/08/14 08:52:39;;;;;;;12.82;3.42;;;;;;;26.48;54.15;101171.41;5019919;28;20128;-69
2023/08/14 08:55:07;;;;;;;13.25;3.17;;;;;;;26.61;53.95;101166.47;5022551;28;20044;-68
2023/08/14 08:57:34;;;;;;;11.13;2.63;;;;;;;26.65;51.26;101165.97;5022555;28;20680;-69
2023/08/14 09:00:00;;;;;;;9.98;1.83;;;;;;;26.81;53.62;101162.38;5020668;28;20048;-68
2023/08/14 09:02:26;;;;;;;7.72;2.90;;;;;;;27.11;53.27;101161.75;5016881;28;20041;-69
2023/08/14 09:04:52;;;;;;;6.47;2.30;;;;;;;26.81;50.97;101159.72;5022503;28;20075;-70
2023/08/14 09:07:17;;;;;;;7.40;2.50;;;;;;;26.79;54.16;101156.53;5020831;28;20073;-69
2023/08/14 09:09:43;;;;;;;10.75;2.70;;;;;;;26.85;53.69;101165.34;5019975;28;20029;-69
2023/08/14 09:12:08;;;;;;;11.55;3.05;;;;;;;27.19;50.49;101163.13;5020816;28;20037;-70
2023/08/14 09:14:34;;;;;;;8.90;2.40;;;;;;;27.11;50.44;101164.41;5021234;28;20037;-70
2023/08/14 09:17:00;;;;;;;7.07;2.45;;;;;;;27.27;51.11;101164.53;5021204;28;20111;-70
2023/08/14 09:19:27;;;;;;;4.28;2.08;;;;;;;27.42;51.49;101163.78;5020990;28;20045;-69
2023/08/14 09:21:52;;;;;;;8.10;2.72;;;;;;;27.60;48.50;101165.22;5014971;28;20041;-71
2023/08/14 09:24:18;;;;;;;6.75;2.22;;;;;;;27.45;47.76;101168.63;5018776;28;20045;-71
2023/08/14 09:26:44;;;;;;;9.55;2.20;;;;;;;27.32;50.23;101173.34;5024279;28;20136;-72
2023/08/14 09:29:12;;;;;;;8.82;2.13;;;;;;;27.28;48.76;101166.13;5013445;28;20075;-70
2023/08/14 09:31:42;;;;;;;7.43;2.33;;;;;;;27.54;48.50;101149.19;5024182;28;20045;-70
2023/08/14 09:34:18;;;;;;;5.07;1.65;;;;;;;27.89;48.14;101144.25;5021236;28;20576;-70
2023/08/14 09:36:43;;;;;;;6.75;1.50;;;;;;;27.71;48.97;101154.31;5021785;28;20129;-71
2023/08/14 09:39:10;;;;;;;4.90;1.83;;;;;;;27.66;48.85;101143.63;5022771;28;20033;-70
2023/08/14 09:41:36;;;;;;;7.20;1.60;;;;;;;27.80;49.70;101141.25;5017386;28;20103;-70
2023/08/14 09:44:03;;;;;;;8.63;2.47;;;;;;;27.92;46.90;101141.06;5016997;28;20029;-70
2023/08/14 09:46:28;;;;;;;6.85;1.50;;;;;;;27.87;45.79;101139.16;5019895;28;20239;-71
2023/08/14 09:48:55;;;;;;;10.73;2.15;;;;;;;28.12;46.84;101137.63;5018926;28;20972;-71
2023/08/14 09:51:21;;;;;;;5.93;1.50;;;;;;;28.20;44.61;101128.28;5020164;28;20063;-71
2023/08/14 09:53:54;;;;;;;7.15;2.35;;;;;;;28.23;47.17;101133.09;5023502;28;20060;-70
2023/08/14 09:56:20;;;;;;;4.00;1.92;;;;;;;28.44;48.13;101117.88;5022215;28;20096;-70
2023/08/14 09:58:49;;;;;;;10.18;1.85;;;;;;;28.57;46.10;101121.91;5027233;28;20649;-71
2023/08/14 10:01:17;;;;;;;12.80;2.35;;;;;;;28.62;45.31;101120.03;5015587;28;20060;-71
2023/08/14 10:03:46;;;;;;;10.35;2.15;;;;;;;28.60;46.33;101121.38;5020520;28;20037;-70
2023/08/14 10:06:13;;;;;;;8.77;2.00;;;;;;;28.41;46.66;101118.44;5024234;28;20053;-70
2023/08/14 10:08:42;;;;;;;5.32;1.80;;;;;;;28.68;45.54;101118.94;5021023;28;20049;-72
2023/08/14 10:11:11;;;;;;;5.75;2.17;;;;;;;28.29;43.70;101118.69;5022805;28;20400;-72
2023/08/14 10:13:43;;;;;;;12.40;2.50;;;;;;;27.84;46.14;101120.22;5021174;28;20037;-71
2023/08/14 10:16:14;;;;;;;7.00;2.22;;;;;;;27.80;48.73;101108.50;5026309;28;20033;-71
2023/08/14 10:18:41;;;;;;;10.48;2.53;;;;;;;27.89;46.13;101114.94;5026292;28;20135;-71
2023/08/14 10:21:14;;;;;;;7.43;1.90;;;;;;;28.02;46.76;101111.75;5025175;28;20626;-71
2023/08/14 10:23:41;;;;;;;8.68;2.08;;;;;;;27.77;47.01;101109.84;5028875;28;20097;-70
2023/08/14 10:26:07;;;;;;;9.02;2.35;;;;;;;27.72;48.13;101112.50;5025377;28;20041;-70
2023/08/14 10:28:33;;;;;;;6.55;2.15;;;;;;;27.82;46.41;101109.03;5027390;28;20037;-71
2023/08/14 10:30:59;;;;;;;11.63;2.92;;;;;;;27.99;48.67;101109.66;5020747;28;20047;-70
2023/08/14 10:33:25;;;;;;;7.78;2.38;;;;;;;28.02;44.89;101110.97;5025601;28;20021;-72
2023/08/14 10:35:57;;;;;;;16.05;3.05;;;;;;;28.02;47.67;101103.78;5023464;28;20266;-70
2023/08/14 10:38:43;;;;;;;11.75;2.88;;;;;;;28.21;47.83;101104.03;5019642;28;20029;-71
2023/08/14 10:41:10;;;;;;;9.68;2.45;;;;;;;28.30;45.86;101106.97;5022309;28;20053;-71
2023/08/14 10:43:36;;;;;;;7.63;2.88;;;;;;;28.24;45.22;101103.50;5023474;28;20034;-71
2023/08/14 10:46:08;;;;;;;10.95;2.80;;;;;;;28.13;45.49;101105.38;5023439;28;20040;-72
2023/08/14 10:48:38;;;;;;;9.32;2.47;;;;;;;28.08;47.93;101104.56;5023615;28;20052;-71
2023/08/14 10:51:06;;;;;;;6.30;2.13;;;;;;;28.25;46.65;101102.44;5021366;28;20080;-70
2023/08/14 10:53:32;;;;;;;6.65;1.67;;;;;;;28.24;46.58;101094.72;5021643;28;20034;-71
2023/08/14 10:55:58;;;;;;;9.50;2.30;;;;;;;28.31;46.14;101097.91;5028918;28;20491;-71
2023/08/14 10:58:35;;;;;;;6.93;2.05;;;;;;;28.17;42.75;101099.53;5023643;28;20041;-71
2023/08/14 11:01:05;;;;;;;5.40;1.58;;;;;;;28.46;43.31;101099.75;5017830;28;20033;-72
2023/08/14 11:03:53;;;;;;;7.18;1.75;;;;;;;28.40;43.05;101090.16;5022743;28;20045;-70
2023/08/14 11:06:27;;;;;;;5.53;1.83;;;;;;;28.42;41.52;101096.03;5023087;28;20365;-71
2023/08/14 11:08:58;;;;;;;4.65;1.75;;;;;;;28.50;42.67;101095.47;5023712;28;20037;-71
2023/08/14 11:11:25;;;;;;;6.10;1.80;;;;;;;28.77;45.27;101097.06;5022158;28;20032;-70
2023/08/14 11:13:52;;;;;;;7.25;1.67;;;;;;;28.81;43.20;101087.44;5020274;28;20026;-70
2023/08/14 11:16:19;;;;;;;8.52;2.17;;;;;;;28.75;41.77;101096.53;5022522;28;20052;-70